createdAt,value
2017-05-21T00:00:34.101Z,85.81
2017-05-21T00:01:33.822Z,86.1
2017-05-21T00:02:34.148Z,86.47
2017-05-21T00:03:34.167Z,86.29
2017-05-21T00:04:34.194Z,85.42
2017-05-21T00:05:48.828Z,85.52
2017-05-21T00:06:33.937Z,85.9
2017-05-21T00:07:34.268Z,86.38
2017-05-21T00:08:34.295Z,86.29
2017-05-21T00:09:34.307Z,86.38
2017-05-21T00:10:34.328Z,86.72
2017-05-21T00:11:34.057Z,86.1
2017-05-21T00:12:34.377Z,86.05
2017-05-21T00:13:34.414Z,86.38
2017-05-21T00:14:34.427Z,85.86
2017-05-21T00:15:34.457Z,86.24
2017-05-21T00:16:34.479Z,86
2017-05-21T00:17:34.503Z,85.96
2017-05-21T00:18:34.529Z,85.67
2017-05-21T00:19:34.551Z,86.24
2017-05-21T00:20:49.183Z,86.05
2017-05-21T00:21:34.291Z,85.67
2017-05-21T00:22:34.612Z,85.58
2017-05-21T00:23:34.638Z,86.72
2017-05-21T00:24:34.659Z,86.05
2017-05-21T00:25:34.694Z,86.63
2017-05-21T00:26:34.719Z,86.82
2017-05-21T00:27:34.743Z,86.24
2017-05-21T00:28:34.768Z,86.72
2017-05-21T00:29:34.778Z,86.34
2017-05-21T00:30:34.812Z,86.63
2017-05-21T00:31:34.834Z,86.91
2017-05-21T00:32:34.848Z,86.91
2017-05-21T00:33:34.871Z,86.91
2017-05-21T00:34:34.907Z,86.91
2017-05-21T00:35:34.618Z,87.1
2017-05-21T00:36:34.639Z,86.91
2017-05-21T00:37:34.968Z,87.1
2017-05-21T00:38:34.691Z,87.1
2017-05-21T00:40:35.036Z,86.72
2017-05-21T00:41:35.067Z,87.01
2017-05-21T00:42:35.083Z,87.1
2017-05-21T00:43:35.118Z,86.82
2017-05-21T00:44:35.133Z,87.1
2017-05-21T00:45:34.860Z,86.82
2017-05-21T00:46:35.189Z,86.91
2017-05-21T00:47:35.209Z,86.72
2017-05-21T00:48:34.930Z,87.1
2017-05-21T00:49:35.255Z,87.1
2017-05-21T00:50:35.270Z,86.82
2017-05-21T00:51:34.995Z,86.91
2017-05-21T00:52:49.933Z,87.2
2017-05-21T00:53:35.038Z,87.2
2017-05-21T00:54:35.364Z,87.29
2017-05-21T00:55:35.089Z,86.91
2017-05-21T00:56:35.422Z,87.01
2017-05-21T00:57:35.441Z,86.77
2017-05-21T00:58:35.169Z,87.06
2017-05-21T00:59:35.494Z,87.15
2017-05-21T01:00:35.204Z,87.63
2017-05-21T01:01:35.544Z,87.73
2017-05-21T01:02:35.570Z,87.73
2017-05-21T01:03:35.273Z,87.63
2017-05-21T01:04:35.598Z,87.54
2017-05-21T01:05:35.316Z,87.68
2017-05-21T01:07:35.368Z,88.11
2017-05-21T01:08:50.307Z,87.92
2017-05-21T01:09:35.722Z,87.73
2017-05-21T01:10:35.746Z,87.73
2017-05-21T01:12:35.486Z,87.63
2017-05-21T01:13:35.807Z,87.44
2017-05-21T01:14:35.838Z,87.73
2017-05-21T01:15:35.856Z,87.35
2017-05-21T01:16:35.578Z,87.54
2017-05-21T01:17:35.900Z,88.3
2017-05-21T01:18:35.923Z,87.92
2017-05-21T01:19:35.641Z,88.4
2017-05-21T01:20:35.981Z,88.4
2017-05-21T01:21:36.006Z,88.59
2017-05-21T01:22:36.016Z,88.97
2017-05-21T01:23:36.038Z,88.68
2017-05-21T01:24:50.681Z,89.06
2017-05-21T01:25:35.786Z,89.16
2017-05-21T01:26:35.814Z,88.68
2017-05-21T01:27:36.131Z,88.49
2017-05-21T01:29:35.879Z,87.92
2017-05-21T01:30:36.208Z,88.68
2017-05-21T01:31:35.929Z,88.68
2017-05-21T01:32:36.259Z,88.4
2017-05-21T01:33:36.279Z,88.68
2017-05-21T01:34:36.298Z,87.82
2017-05-21T01:35:36.015Z,88.4
2017-05-21T01:36:36.350Z,88.78
2017-05-21T01:37:36.372Z,88.59
2017-05-21T01:38:36.396Z,88.49
2017-05-21T01:39:36.410Z,88.68
2017-05-21T01:40:51.049Z,88.4
2017-05-21T01:41:36.154Z,88.4
2017-05-21T01:42:36.478Z,88.4
2017-05-21T01:43:36.196Z,88.59
2017-05-21T01:44:36.534Z,88.3
2017-05-21T01:45:36.249Z,87.92
2017-05-21T01:47:36.608Z,88.4
2017-05-21T01:48:36.323Z,88.2
2017-05-21T01:49:36.649Z,87.73
2017-05-21T01:50:36.673Z,88.68
2017-05-21T01:51:36.693Z,88.4
2017-05-21T01:52:36.410Z,88.68
2017-05-21T01:53:36.736Z,88.59
2017-05-21T01:54:36.767Z,88.97
2017-05-21T01:55:51.399Z,89.16
2017-05-21T01:56:36.803Z,88.87
2017-05-21T01:57:36.827Z,88.4
2017-05-21T01:58:36.552Z,88.49
2017-05-21T01:59:36.567Z,88.49
2017-05-21T02:00:36.590Z,88.2
2017-05-21T02:01:36.612Z,87.92
2017-05-21T02:02:36.637Z,88.2
2017-05-21T02:03:36.961Z,88.07
2017-05-21T02:04:36.996Z,88.26
2017-05-21T02:05:37.020Z,88.4
2017-05-21T02:06:37.034Z,87.97
2017-05-21T02:07:36.762Z,88.07
2017-05-21T02:08:36.779Z,88.01
2017-05-21T02:09:36.805Z,87.68
2017-05-21T02:10:36.832Z,87.59
2017-05-21T02:11:37.158Z,87.4
2017-05-21T02:12:37.173Z,87.78
2017-05-21T02:13:36.899Z,87.68
2017-05-21T02:14:37.251Z,87.87
2017-05-21T02:15:37.236Z,87.63
2017-05-21T02:16:36.962Z,87.59
2017-05-21T02:17:36.986Z,86.87
2017-05-21T02:18:37.013Z,87.06
2017-05-21T02:19:37.342Z,87.21
2017-05-21T02:20:37.355Z,87.87
2017-05-21T02:21:37.387Z,86.92
2017-05-21T02:22:37.413Z,86.73
2017-05-21T02:23:37.433Z,86.87
2017-05-21T02:24:37.454Z,87.11
2017-05-21T02:25:37.466Z,87.11
2017-05-21T02:26:37.493Z,86.44
2017-05-21T02:27:52.133Z,86.44
2017-05-21T02:28:37.547Z,86.54
2017-05-21T02:31:37.311Z,86.63
2017-05-21T02:32:37.333Z,86.44
2017-05-21T02:33:37.653Z,86.82
2017-05-21T02:34:37.673Z,87.02
2017-05-21T02:35:37.699Z,86.92
2017-05-21T02:36:37.721Z,86.54
2017-05-21T02:37:37.447Z,86.73
2017-05-21T02:38:37.776Z,86.73
2017-05-21T02:40:37.517Z,86.54
2017-05-21T02:41:37.843Z,86.73
2017-05-21T02:42:37.557Z,86.63
2017-05-21T02:43:52.498Z,86.54
2017-05-21T02:44:37.902Z,86.63
2017-05-21T02:45:37.926Z,86.44
2017-05-21T02:46:37.955Z,86.25
2017-05-21T02:48:38.005Z,86.54
2017-05-21T02:49:38.023Z,86.54
2017-05-21T02:50:38.050Z,86.44
2017-05-21T02:51:37.763Z,86.63
2017-05-21T02:52:38.095Z,86.73
2017-05-21T02:53:38.117Z,86.92
2017-05-21T02:54:38.138Z,87.02
2017-05-21T02:55:38.158Z,86.82
2017-05-21T02:56:38.176Z,86.82
2017-05-21T02:57:37.899Z,86.92
2017-05-21T02:58:37.918Z,87.02
2017-05-21T02:59:52.859Z,86.82
2017-05-21T03:00:38.268Z,86.82
2017-05-21T03:01:38.292Z,86.82
2017-05-21T03:02:38.317Z,86.92
2017-05-21T03:03:38.032Z,87.49
2017-05-21T03:04:38.054Z,87.11
2017-05-21T03:05:38.384Z,87.87
2017-05-21T03:06:38.406Z,87.59
2017-05-21T03:07:38.132Z,87.4
2017-05-21T03:08:38.147Z,87.3
2017-05-21T03:09:38.472Z,87.59
2017-05-21T03:10:38.193Z,88.16
2017-05-21T03:11:38.526Z,88.16
2017-05-21T03:12:38.239Z,88.35
2017-05-21T03:13:38.567Z,87.97
2017-05-21T03:14:38.596Z,88.54
2017-05-21T03:15:53.222Z,88.54
2017-05-21T03:16:38.332Z,88.64
2017-05-21T03:17:38.658Z,88.54
2017-05-21T03:18:38.686Z,88.26
2017-05-21T03:19:38.706Z,88.16
2017-05-21T03:20:38.418Z,88.26
2017-05-21T03:21:38.743Z,88.45
2017-05-21T03:22:38.767Z,88.73
2017-05-21T03:23:38.793Z,89.12
2017-05-21T03:24:38.820Z,89.02
2017-05-21T03:25:38.837Z,88.73
2017-05-21T03:26:38.868Z,88.83
2017-05-21T03:27:38.882Z,88.92
2017-05-21T03:28:38.603Z,88.92
2017-05-21T03:29:38.938Z,88.64
2017-05-21T03:30:53.568Z,88.73
2017-05-21T03:31:38.972Z,88.54
2017-05-21T03:32:39.008Z,88.92
2017-05-21T03:33:39.021Z,88.73
2017-05-21T03:34:39.049Z,88.92
2017-05-21T03:37:39.109Z,89.4
2017-05-21T03:38:38.836Z,89.5
2017-05-21T03:39:39.154Z,89.78
2017-05-21T03:40:38.876Z,89.59
2017-05-21T03:41:39.198Z,89.69
2017-05-21T03:43:38.950Z,89.69
2017-05-21T03:44:38.973Z,89.69
2017-05-21T03:45:39.291Z,89.69
2017-05-21T03:46:39.321Z,89.5
2017-05-21T03:47:39.335Z,89.78
2017-05-21T03:48:39.357Z,89.02
2017-05-21T03:49:39.386Z,88.87
2017-05-21T03:50:39.108Z,89.06
2017-05-21T03:51:39.425Z,88.68
2017-05-21T03:52:39.452Z,89.16
2017-05-21T03:53:39.179Z,88.87
2017-05-21T03:56:39.553Z,88.4
2017-05-21T03:57:39.576Z,88.11
2017-05-21T03:58:39.597Z,88.3
2017-05-21T03:59:39.620Z,88.11
2017-05-21T04:00:39.640Z,88.3
2017-05-21T04:01:39.665Z,88.11
2017-05-21T04:02:54.300Z,87.73
2017-05-21T04:03:39.702Z,87.54
2017-05-21T04:04:39.746Z,87.73
2017-05-21T04:05:39.762Z,87.44
2017-05-21T04:06:39.474Z,87.63
2017-05-21T04:07:39.801Z,86.77
2017-05-21T04:08:39.819Z,87.06
2017-05-21T04:09:39.850Z,87.1
2017-05-21T04:10:39.570Z,86.77
2017-05-21T04:11:39.891Z,86.49
2017-05-21T04:12:39.911Z,86.39
2017-05-21T04:13:39.937Z,86.15
2017-05-21T04:14:39.655Z,86.15
2017-05-21T04:15:39.677Z,86.2
2017-05-21T04:16:39.699Z,86.15
2017-05-21T04:17:39.722Z,86.24
2017-05-21T04:18:54.670Z,86.15
2017-05-21T04:19:39.778Z,86.63
2017-05-21T04:20:40.096Z,86.24
2017-05-21T04:21:39.816Z,85.77
2017-05-21T04:22:39.840Z,85.96
2017-05-21T04:23:39.872Z,86.05
2017-05-21T04:24:40.199Z,85.38
2017-05-21T04:25:40.213Z,85.86
2017-05-21T04:26:39.936Z,85.58
2017-05-21T04:27:40.262Z,85.29
2017-05-21T04:28:40.052Z,84.62
2017-05-21T04:29:40.310Z,85.48
2017-05-21T04:30:40.033Z,85.19
2017-05-21T04:31:40.356Z,85.48
2017-05-21T04:32:40.377Z,85
2017-05-21T04:33:40.413Z,84.81
2017-05-21T04:34:55.043Z,84.05
2017-05-21T04:35:40.446Z,84.05
2017-05-21T04:36:40.472Z,83.86
2017-05-21T04:37:40.505Z,83.95
2017-05-21T04:38:40.527Z,83.47
2017-05-21T04:39:40.552Z,83.23
2017-05-21T04:40:40.573Z,82.18
2017-05-21T04:41:40.284Z,80.69
2017-05-21T04:42:40.624Z,78.72
2017-05-21T04:43:40.634Z,75.93
2017-05-21T04:44:40.668Z,73.28
2017-05-21T04:45:40.681Z,71.88
2017-05-21T04:46:40.407Z,70.06
2017-05-21T04:47:40.736Z,69.62
2017-05-21T04:48:40.457Z,67.54
2017-05-21T04:49:40.786Z,66.71
2017-05-21T04:50:55.429Z,65.01
2017-05-21T04:51:40.535Z,64.63
2017-05-21T04:52:40.563Z,63.96
2017-05-21T04:53:40.890Z,61.87
2017-05-21T04:54:40.913Z,60.21
2017-05-21T04:56:40.969Z,57.47
2017-05-21T04:57:41.014Z,56.25
2017-05-21T04:58:41.027Z,56.73
2017-05-21T04:59:41.067Z,57.47
2017-05-21T05:00:41.088Z,57.54
2017-05-21T05:01:41.107Z,56.35
2017-05-21T05:02:40.836Z,55.02
2017-05-21T05:03:41.175Z,55.22
2017-05-21T05:04:40.887Z,53.29
2017-05-21T05:05:55.838Z,51.41
2017-05-21T05:06:40.949Z,51.05
2017-05-21T05:07:40.980Z,50.74
2017-05-21T05:08:41.021Z,50.18
2017-05-21T05:09:41.351Z,49.99
2017-05-21T05:10:41.370Z,49.15
2017-05-21T05:11:41.399Z,49.07
2017-05-21T05:12:41.134Z,47.89
2017-05-21T05:13:41.469Z,47.74
2017-05-21T05:14:41.496Z,46.9
2017-05-21T05:15:41.518Z,46.97
2017-05-21T05:16:41.548Z,47.26
2017-05-21T05:17:41.286Z,47.45
2017-05-21T05:18:41.313Z,47.33
2017-05-21T05:19:41.343Z,47.74
2017-05-21T05:20:41.379Z,46.88
2017-05-21T05:21:41.412Z,48.21
2017-05-21T05:22:41.435Z,47.8
2017-05-21T05:23:41.772Z,46
2017-05-21T05:24:41.803Z,45.66
2017-05-21T05:26:41.878Z,43.77
2017-05-21T05:27:41.910Z,43.58
2017-05-21T05:28:41.946Z,43.77
2017-05-21T05:29:41.976Z,43.55
2017-05-21T05:30:41.996Z,43.44
2017-05-21T05:31:42.031Z,45.64
2017-05-21T05:32:42.072Z,45.04
2017-05-21T05:33:42.108Z,44.21
2017-05-21T05:34:42.132Z,42.41
2017-05-21T05:35:42.173Z,41.95
2017-05-21T05:36:41.901Z,40.34
2017-05-21T05:37:56.853Z,40.56
2017-05-21T05:38:41.972Z,40.99
2017-05-21T05:39:42.310Z,41.17
2017-05-21T05:40:42.339Z,40.42
2017-05-21T05:41:42.375Z,39.95
2017-05-21T05:42:42.099Z,40.33
2017-05-21T05:43:42.439Z,42.22
2017-05-21T05:44:42.482Z,40.61
2017-05-21T05:45:42.517Z,41.95
2017-05-21T05:46:42.536Z,41.45
2017-05-21T05:47:42.573Z,40.42
2017-05-21T05:49:42.641Z,38.44
2017-05-21T05:50:42.678Z,37.2
2017-05-21T05:51:42.713Z,36.75
2017-05-21T05:52:42.751Z,38.07
2017-05-21T05:53:57.402Z,36.71
2017-05-21T05:54:42.815Z,35.97
2017-05-21T05:55:42.857Z,35.47
2017-05-21T05:56:42.949Z,35.1
2017-05-21T05:57:42.929Z,35.19
2017-05-21T05:58:42.958Z,36.81
2017-05-21T05:59:43.002Z,36.69
2017-05-21T06:00:43.033Z,37.9
2017-05-21T06:01:43.062Z,38.78
2017-05-21T06:02:43.098Z,39.24
2017-05-21T06:03:43.140Z,38.02
2017-05-21T06:04:43.166Z,37.26
2017-05-21T06:06:43.247Z,38.21
2017-05-21T06:07:42.976Z,38.02
2017-05-21T06:08:43.322Z,36.99
2017-05-21T06:09:57.963Z,36.77
2017-05-21T06:10:43.078Z,36.6
2017-05-21T06:11:43.438Z,36.79
2017-05-21T06:12:43.154Z,35.37
2017-05-21T06:13:43.489Z,35.1
2017-05-21T06:14:43.543Z,35.94
2017-05-21T06:15:43.259Z,35.63
2017-05-21T06:16:43.606Z,35.37
2017-05-21T06:17:43.326Z,34.69
2017-05-21T06:18:43.676Z,35.37
2017-05-21T06:19:43.703Z,36.79
2017-05-21T06:20:43.745Z,37.43
2017-05-21T06:21:43.796Z,36.38
2017-05-21T06:22:43.823Z,37.08
2017-05-21T06:23:43.855Z,36.58
2017-05-21T06:24:43.883Z,36.21
2017-05-21T06:25:58.541Z,36.91
2017-05-21T06:26:43.969Z,36.77
2017-05-21T06:27:43.689Z,37.26
2017-05-21T06:28:44.027Z,38.17
2017-05-21T06:29:44.065Z,37.71
2017-05-21T06:30:44.108Z,37.74
2017-05-21T06:31:44.136Z,38.39
2017-05-21T06:32:44.184Z,38.09
2017-05-21T06:33:44.219Z,38.85
2017-05-21T06:35:43.978Z,37.08
2017-05-21T06:36:44.327Z,36.85
2017-05-21T06:38:44.397Z,36.38
2017-05-21T06:39:44.429Z,36.3
2017-05-21T06:40:59.085Z,37.34
2017-05-21T06:41:44.504Z,36.38
2017-05-21T06:42:44.535Z,36.02
2017-05-21T06:44:44.611Z,33.38
2017-05-21T06:46:44.680Z,35.16
2017-05-21T06:47:44.419Z,35.55
2017-05-21T06:48:44.762Z,36.74
2017-05-21T06:49:44.495Z,38.64
2017-05-21T06:50:44.524Z,38.91
2017-05-21T06:51:44.559Z,39.2
2017-05-21T06:52:44.604Z,38.15
2017-05-21T06:53:44.940Z,38.09
2017-05-21T06:54:44.975Z,37.15
2017-05-21T06:55:45.017Z,36.48
2017-05-21T06:56:44.746Z,37.24
2017-05-21T06:57:44.782Z,37.03
2017-05-21T06:58:44.821Z,37.21
2017-05-21T06:59:45.156Z,37.57
2017-05-21T07:00:44.894Z,37.79
2017-05-21T07:01:45.227Z,38.07
2017-05-21T07:02:45.260Z,37.96
2017-05-21T07:03:45.299Z,36.74
2017-05-21T07:04:45.344Z,37.13
2017-05-21T07:05:45.067Z,38.25
2017-05-21T07:06:45.406Z,38.81
2017-05-21T07:07:45.146Z,39.09
2017-05-21T07:08:45.184Z,38.54
2017-05-21T07:09:45.526Z,37.19
2017-05-21T07:10:45.551Z,35.48
2017-05-21T07:11:45.283Z,34.56
2017-05-21T07:13:00.244Z,32.73
2017-05-21T07:13:45.671Z,33.51
2017-05-21T07:14:45.399Z,33.14
2017-05-21T07:15:45.747Z,33.43
2017-05-21T07:16:45.469Z,32.65
2017-05-21T07:17:45.818Z,33.81
2017-05-21T07:18:45.842Z,33.72
2017-05-21T07:19:46.180Z,32.64
2017-05-21T07:20:45.914Z,32.29
2017-05-21T07:21:45.957Z,31.82
2017-05-21T07:22:45.997Z,31.73
2017-05-21T07:23:45.726Z,30.49
2017-05-21T07:25:46.105Z,30.1
2017-05-21T07:26:45.828Z,30.65
2017-05-21T07:27:46.177Z,32.76
2017-05-21T07:29:00.825Z,34.08
2017-05-21T07:29:46.244Z,33.96
2017-05-21T07:30:46.289Z,32.44
2017-05-21T07:31:46.023Z,31.5
2017-05-21T07:33:46.097Z,30.28
2017-05-21T07:34:46.426Z,29.89
2017-05-21T07:35:46.474Z,29.97
2017-05-21T07:36:46.502Z,30.65
2017-05-21T07:37:46.536Z,31.53
2017-05-21T07:39:46.620Z,35.09
2017-05-21T07:42:46.730Z,33.69
2017-05-21T07:43:46.457Z,33.02
2017-05-21T07:45:01.417Z,33.51
2017-05-21T07:45:46.533Z,33.8
2017-05-21T07:46:46.876Z,32.81
2017-05-21T07:47:46.913Z,33.41
2017-05-21T07:48:46.641Z,33.12
2017-05-21T07:49:46.985Z,33.29
2017-05-21T07:50:47.015Z,32.92
2017-05-21T07:51:46.744Z,32.35
2017-05-21T07:52:47.082Z,31.61
2017-05-21T07:53:47.120Z,32.65
2017-05-21T07:54:47.155Z,35.46
2017-05-21T07:55:47.199Z,36.76
2017-05-21T07:57:47.273Z,34.91
2017-05-21T07:58:47.312Z,34.62
2017-05-21T07:59:47.033Z,34.14
2017-05-21T08:01:01.993Z,32.62
2017-05-21T08:01:47.477Z,32.81
2017-05-21T08:02:47.445Z,32.52
2017-05-21T08:03:47.494Z,32.34
2017-05-21T08:04:47.530Z,32.99
2017-05-21T08:05:47.558Z,32.71
2017-05-21T08:06:47.600Z,31.76
2017-05-21T08:07:47.633Z,30.8
2017-05-21T08:08:47.673Z,30.25
2017-05-21T08:09:47.710Z,31.5
2017-05-21T08:10:47.436Z,32.62
2017-05-21T08:12:47.568Z,32.7
2017-05-21T08:13:47.851Z,31.55
2017-05-21T08:14:47.575Z,32.31
2017-05-21T08:16:02.535Z,30.5
2017-05-21T08:16:47.954Z,30.61
2017-05-21T08:17:47.698Z,30.61
2017-05-21T08:18:47.729Z,30.5
2017-05-21T08:20:47.793Z,32.86
2017-05-21T08:21:48.131Z,33.31
2017-05-21T08:22:47.868Z,32.73
2017-05-21T08:23:47.908Z,31.42
2017-05-21T08:24:48.239Z,30.95
2017-05-21T08:25:48.284Z,32.59
2017-05-21T08:26:48.307Z,32.86
2017-05-21T08:28:48.080Z,32.96
2017-05-21T08:29:48.430Z,32.57
2017-05-21T08:30:48.459Z,33.33
2017-05-21T08:31:48.497Z,34.57
2017-05-21T08:32:48.531Z,34.83
2017-05-21T08:33:48.261Z,34.47
2017-05-21T08:34:48.297Z,35.5
2017-05-21T08:35:48.330Z,35.12
2017-05-21T08:36:48.363Z,34.19
2017-05-21T08:37:48.698Z,34.67
2017-05-21T08:38:48.733Z,34.09
2017-05-21T08:39:48.778Z,32.57
2017-05-21T08:40:48.815Z,31.42
2017-05-21T08:41:48.848Z,30.66
2017-05-21T08:43:48.916Z,30.19
2017-05-21T08:44:48.649Z,30.58
2017-05-21T08:45:48.681Z,30.3
2017-05-21T08:46:49.018Z,29.25
2017-05-21T08:48:03.670Z,28.97
2017-05-21T08:48:49.095Z,29.35
2017-05-21T08:49:48.824Z,30.01
2017-05-21T08:50:48.854Z,29.52
2017-05-21T08:51:48.895Z,30.09
2017-05-21T08:53:48.965Z,30.48
2017-05-21T08:54:49.303Z,30.29
2017-05-21T08:55:49.024Z,31.34
2017-05-21T08:56:49.365Z,30.27
2017-05-21T08:57:49.398Z,30.37
2017-05-21T08:58:49.431Z,30.48
2017-05-21T08:59:49.173Z,30.19
2017-05-21T09:00:49.509Z,29.74
2017-05-21T09:01:49.234Z,28.5
2017-05-21T09:02:49.270Z,28.29
2017-05-21T09:04:04.228Z,29.05
2017-05-21T09:04:49.338Z,29.43
2017-05-21T09:05:49.371Z,28.47
2017-05-21T09:06:49.411Z,27.14
2017-05-21T09:07:49.456Z,28.39
2017-05-21T09:09:49.867Z,28.96
2017-05-21T09:10:49.849Z,28.86
2017-05-21T09:11:49.887Z,29.72
2017-05-21T09:12:49.620Z,30
2017-05-21T09:13:49.963Z,30.65
2017-05-21T09:14:49.999Z,31.29
2017-05-21T09:15:50.034Z,30.44
2017-05-21T09:16:50.056Z,30.37
2017-05-21T09:17:49.790Z,29.71
2017-05-21T09:18:49.820Z,29.52
2017-05-21T09:20:04.778Z,29.8
2017-05-21T09:20:49.894Z,29.72
2017-05-21T09:21:49.923Z,29.05
2017-05-21T09:23:49.995Z,28
2017-05-21T09:24:50.344Z,28.3
2017-05-21T09:25:50.374Z,27.23
2017-05-21T09:26:50.096Z,27.92
2017-05-21T09:27:50.138Z,27.25
2017-05-21T09:28:50.171Z,28.09
2017-05-21T09:29:50.204Z,28.29
2017-05-21T09:31:50.269Z,28.76
2017-05-21T09:32:50.607Z,28.08
2017-05-21T09:34:50.674Z,28.28
2017-05-21T09:36:05.324Z,27.22
2017-05-21T09:36:50.441Z,27.53
2017-05-21T09:37:50.786Z,28.85
2017-05-21T09:38:50.816Z,29.79
2017-05-21T09:39:50.840Z,29.6
2017-05-21T09:40:50.571Z,30.09
2017-05-21T09:41:50.604Z,29.33
2017-05-21T09:42:50.639Z,29.72
2017-05-21T09:43:50.984Z,29.8
2017-05-21T09:44:50.715Z,30.37
2017-05-21T09:45:51.055Z,30.27
2017-05-21T09:46:50.781Z,29.98
2017-05-21T09:47:50.816Z,28.93
2017-05-21T09:48:51.158Z,29.88
2017-05-21T09:49:51.191Z,30.07
2017-05-21T09:51:05.834Z,30.15
2017-05-21T09:51:50.944Z,30.26
2017-05-21T09:52:51.290Z,29.3
2017-05-21T09:53:51.015Z,29.5
2017-05-21T09:54:51.405Z,29.4
2017-05-21T09:55:51.391Z,28.76
2017-05-21T09:56:51.116Z,28.28
2017-05-21T09:57:51.453Z,28.66
2017-05-21T09:58:51.477Z,28.96
2017-05-21T09:59:51.509Z,28.08
2017-05-21T10:00:51.545Z,29.33
2017-05-21T10:01:51.579Z,28.75
2017-05-21T10:02:51.315Z,28.96
2017-05-21T10:03:51.648Z,29.88
2017-05-21T10:04:51.672Z,29.58
2017-05-21T10:05:51.716Z,29.5
2017-05-21T10:06:51.741Z,29.41
2017-05-21T10:07:51.785Z,29.4
2017-05-21T10:08:51.817Z,30.26
2017-05-21T10:09:51.849Z,31.86
2017-05-21T10:10:51.873Z,32.52
2017-05-21T10:11:51.911Z,31.74
2017-05-21T10:12:51.948Z,31.28
2017-05-21T10:13:51.970Z,30.52
2017-05-21T10:14:51.697Z,30.74
2017-05-21T10:15:52.044Z,30.55
2017-05-21T10:16:52.074Z,30.18
2017-05-21T10:18:52.139Z,30.65
2017-05-21T10:19:51.860Z,30.54
2017-05-21T10:20:51.893Z,30.73
2017-05-21T10:21:51.920Z,31.49
2017-05-21T10:23:06.878Z,32.81
2017-05-21T10:23:51.989Z,32.81
2017-05-21T10:24:52.333Z,32.52
2017-05-21T10:25:52.358Z,30.6
2017-05-21T10:26:52.385Z,30.82
2017-05-21T10:27:52.417Z,30.73
2017-05-21T10:28:52.451Z,30.63
2017-05-21T10:29:52.482Z,31.86
2017-05-21T10:30:52.525Z,32.34
2017-05-21T10:31:52.241Z,31.67
2017-05-21T10:32:52.270Z,31.57
2017-05-21T10:33:52.614Z,31.76
2017-05-21T10:34:52.645Z,31.39
2017-05-21T10:36:52.699Z,32.12
2017-05-21T10:37:52.738Z,31.83
2017-05-21T10:39:07.384Z,31.44
2017-05-21T10:39:52.793Z,31.36
2017-05-21T10:40:52.830Z,31.84
2017-05-21T10:43:52.917Z,30.51
2017-05-21T10:44:52.962Z,30.6
2017-05-21T10:45:52.993Z,31.47
2017-05-21T10:46:52.717Z,31.67
2017-05-21T10:47:52.742Z,31.84
2017-05-21T10:48:53.087Z,31.46
2017-05-21T10:49:52.809Z,31.47
2017-05-21T10:50:52.839Z,31.09
2017-05-21T10:51:52.872Z,31.73
2017-05-21T10:52:53.211Z,31.63
2017-05-21T10:53:53.231Z,31.44
2017-05-21T10:55:07.881Z,31.93
2017-05-21T10:55:53.293Z,31.18
2017-05-21T10:56:53.340Z,30.41
2017-05-21T10:57:53.356Z,30.41
2017-05-21T10:58:53.389Z,31.67
2017-05-21T10:59:53.419Z,30.51
2017-05-21T11:00:53.452Z,30.99
2017-05-21T11:01:53.181Z,31.07
2017-05-21T11:02:53.206Z,31.26
2017-05-21T11:03:53.243Z,32.21
2017-05-21T11:04:53.572Z,33.57
2017-05-21T11:05:53.303Z,31.74
2017-05-21T11:06:53.634Z,31.86
2017-05-21T11:07:53.368Z,31.37
2017-05-21T11:08:53.401Z,30.79
2017-05-21T11:09:53.428Z,30.52
2017-05-21T11:11:08.376Z,31.67
2017-05-21T11:11:53.787Z,31.56
2017-05-21T11:12:53.520Z,31.63
2017-05-21T11:13:53.857Z,32.49
2017-05-21T11:15:53.916Z,33.36
2017-05-21T11:16:53.643Z,33.84
2017-05-21T11:17:53.669Z,32.96
2017-05-21T11:18:53.705Z,33.52
2017-05-21T11:19:53.734Z,34.66
2017-05-21T11:20:54.066Z,34.38
2017-05-21T11:21:54.088Z,34
2017-05-21T11:22:53.821Z,34.28
2017-05-21T11:23:53.851Z,34.08
2017-05-21T11:24:54.188Z,34.08
2017-05-21T11:26:08.828Z,33.89
2017-05-21T11:26:54.246Z,34.1
2017-05-21T11:27:54.268Z,34.41
2017-05-21T11:28:54.004Z,33.67
2017-05-21T11:29:54.338Z,32.71
2017-05-21T11:30:54.054Z,31.67
2017-05-21T11:31:54.086Z,32.33
2017-05-21T11:32:54.125Z,32.71
2017-05-21T11:33:54.462Z,32.89
2017-05-21T11:34:54.491Z,31.94
2017-05-21T11:35:54.512Z,31.94
2017-05-21T11:36:54.538Z,31.54
2017-05-21T11:37:54.583Z,31.34
2017-05-21T11:38:54.612Z,31.91
2017-05-21T11:39:54.332Z,31.25
2017-05-21T11:40:54.356Z,31.63
2017-05-21T11:41:54.384Z,30.78
2017-05-21T11:42:54.724Z,30.39
2017-05-21T11:43:54.746Z,30.47
2017-05-21T11:44:54.780Z,31.62
2017-05-21T11:45:54.814Z,31.63
2017-05-21T11:47:54.557Z,30.81
2017-05-21T11:48:54.903Z,30.71
2017-05-21T11:49:54.924Z,30.71
2017-05-21T11:50:54.653Z,30.31
2017-05-21T11:51:54.682Z,30.51
2017-05-21T11:52:55.024Z,30.58
2017-05-21T11:53:55.047Z,31.44
2017-05-21T11:54:55.071Z,31.15
2017-05-21T11:55:55.102Z,31.25
2017-05-21T11:56:55.138Z,31.44
2017-05-21T11:58:09.774Z,31.44
2017-05-21T11:58:55.190Z,32.09
2017-05-21T11:59:55.215Z,32.46
2017-05-21T12:00:55.253Z,32.47
2017-05-21T12:01:55.326Z,32.96
2017-05-21T12:02:55.315Z,32.2
2017-05-21T12:03:55.345Z,31.63
2017-05-21T12:04:55.427Z,31.63
2017-05-21T12:05:55.393Z,31.71
2017-05-21T12:06:55.424Z,32.59
2017-05-21T12:07:55.454Z,32.68
2017-05-21T12:08:55.488Z,32.87
2017-05-21T12:09:55.523Z,32.68
2017-05-21T12:10:55.234Z,32.76
2017-05-21T12:11:55.264Z,32.49
2017-05-21T12:12:55.295Z,32.2
2017-05-21T12:14:10.245Z,32.67
2017-05-21T12:14:55.658Z,32.29
2017-05-21T12:15:55.688Z,32.59
2017-05-21T12:16:55.716Z,32.31
2017-05-21T12:17:55.745Z,32.21
2017-05-21T12:18:55.469Z,32.31
2017-05-21T12:19:55.499Z,32.97
2017-05-21T12:20:55.844Z,32.49
2017-05-21T12:21:55.873Z,33.36
2017-05-21T12:22:55.890Z,33.83
2017-05-21T12:23:55.922Z,34.02
2017-05-21T12:24:55.957Z,34.39
2017-05-21T12:25:55.976Z,35.26
2017-05-21T12:26:56.006Z,34.87
2017-05-21T12:27:55.738Z,34.97
2017-05-21T12:28:55.770Z,34.97
2017-05-21T12:30:10.713Z,35.26
2017-05-21T12:30:55.817Z,35.34
2017-05-21T12:31:56.149Z,35.24
2017-05-21T12:32:56.193Z,35.14
2017-05-21T12:33:55.910Z,35.55
2017-05-21T12:34:56.249Z,35.45
2017-05-21T12:36:56.298Z,34.7
2017-05-21T12:38:56.049Z,34.04
2017-05-21T12:40:56.416Z,33.83
2017-05-21T12:41:56.455Z,33.94
2017-05-21T12:42:56.470Z,34.42
2017-05-21T12:43:56.196Z,33.45
2017-05-21T12:44:56.586Z,33.55
2017-05-21T12:46:11.170Z,34.41
2017-05-21T12:46:56.591Z,34.48
2017-05-21T12:47:56.310Z,34.89
2017-05-21T12:48:56.341Z,33.65
2017-05-21T12:49:56.677Z,34.33
2017-05-21T12:50:56.701Z,34.23
2017-05-21T12:51:56.728Z,33.57
2017-05-21T12:52:56.764Z,33.45
2017-05-21T12:53:56.784Z,32.41
2017-05-21T12:54:56.812Z,32.59
2017-05-21T12:55:56.851Z,32.39
2017-05-21T12:56:56.872Z,33.05
2017-05-21T12:57:56.907Z,33.17
2017-05-21T12:58:56.635Z,32.7
2017-05-21T12:59:56.656Z,32.79
2017-05-21T13:01:11.607Z,31.74
2017-05-21T13:01:56.712Z,31.44
2017-05-21T13:02:56.740Z,31.34
2017-05-21T13:03:56.776Z,31.44
2017-05-21T13:05:57.140Z,31.46
2017-05-21T13:07:57.192Z,31.47
2017-05-21T13:08:57.221Z,31.57
2017-05-21T13:09:57.249Z,31.37
2017-05-21T13:10:56.975Z,31.93
2017-05-21T13:11:57.009Z,32.6
2017-05-21T13:12:57.335Z,32.89
2017-05-21T13:13:57.364Z,32.7
2017-05-21T13:14:57.396Z,32.62
2017-05-21T13:15:57.425Z,32.51
2017-05-21T13:16:57.152Z,32.21
2017-05-21T13:17:57.176Z,32.14
2017-05-21T13:18:57.207Z,32.04
2017-05-21T13:19:57.250Z,32.41
2017-05-21T13:20:57.578Z,32.12
2017-05-21T13:21:57.299Z,32.21
2017-05-21T13:22:57.634Z,31.34
2017-05-21T13:23:57.657Z,31.46
2017-05-21T13:24:57.389Z,31.54
2017-05-21T13:25:57.407Z,31.44
2017-05-21T13:26:57.436Z,32.21
2017-05-21T13:27:57.780Z,31.74
2017-05-21T13:28:57.817Z,31.47
2017-05-21T13:29:57.836Z,32.33
2017-05-21T13:30:57.555Z,32.04
2017-05-21T13:31:57.883Z,31.37
2017-05-21T13:33:12.534Z,31.57
2017-05-21T13:33:57.952Z,31.96
2017-05-21T13:34:57.972Z,31.37
2017-05-21T13:35:58.010Z,31.37
2017-05-21T13:36:58.038Z,31.74
2017-05-21T13:37:58.068Z,31.76
2017-05-21T13:38:58.099Z,31.29
2017-05-21T13:39:57.823Z,29.85
2017-05-21T13:40:57.847Z,30.13
2017-05-21T13:41:58.187Z,30.62
2017-05-21T13:42:58.206Z,29.57
2017-05-21T13:44:58.276Z,29.85